< Typhoon 200519 2005 Season Typhoon 200521 >
Typhoon 200520 (KIROGI)
General InformationTrack Information on Google MapsDetailed Wind InformationAccess Analytics MapList of All Images || NewsDisaster Info.WeblogTrackbackTyphoon FrontResourceGoogle EarthGE AnimationAtom FeedGeoJSON
Detalied Best Track (Time Zone = UTC)
Year Month Day Hour Lat. Long. Pressure (hPa) Wind (kt) Class Image Chart
2005 10 9 00 22.0 137.9 1008 0 2 Image Chart
2005 10 9 06 22.4 137.2 1008 0 2 Image Chart
2005 10 9 12 22.7 136.4 1008 0 2 Image Chart
2005 10 9 18 23.0 135.4 1006 0 2 Image Chart
2005 10 10 00 22.9 134.5 1004 0 2 Image Chart
2005 10 10 06 22.6 133.9 1000 35 3 Image Chart
2005 10 10 12 22.1 133.4 994 40 3 Image Chart
2005 10 10 18 21.9 133.2 990 45 3 Image Chart
2005 10 11 00 21.4 133.1 985 50 4 Image Chart
2005 10 11 06 21.0 133.0 970 65 5 Image Chart
2005 10 11 12 20.7 132.9 950 80 5 Image Chart
2005 10 11 18 20.5 132.6 940 85 5 Image Chart
2005 10 12 00 20.5 132.5 935 95 5 Image Chart
2005 10 12 06 20.6 132.3 930 100 5 Image Chart
2005 10 12 12 20.8 132.2 930 100 5 Image Chart
2005 10 12 18 21.1 131.9 935 90 5 Image Chart
2005 10 13 00 21.4 131.7 940 85 5 Image Chart
2005 10 13 06 21.5 131.8 940 85 5 Image Chart
2005 10 13 12 21.8 131.8 940 85 5 Image Chart
2005 10 13 18 22.2 131.9 940 85 5 Image Chart
2005 10 14 00 22.6 131.3 940 85 5 Image Chart
2005 10 14 06 22.9 131.3 940 85 5 Image Chart
2005 10 14 12 22.9 131.1 940 85 5 Image Chart
2005 10 14 18 23.0 131.1 940 85 5 Image Chart
2005 10 15 00 23.3 131.3 940 85 5 Image Chart
2005 10 15 06 23.5 131.3 940 85 5 Image Chart
2005 10 15 12 23.8 131.8 940 85 5 Image Chart
2005 10 15 18 24.0 132.4 940 85 5 Image Chart
2005 10 16 00 24.2 132.9 940 85 5 Image Chart
2005 10 16 06 24.6 133.5 940 85 5 Image Chart
2005 10 16 12 25.2 134.0 940 85 5 Image Chart
2005 10 16 18 25.8 134.2 940 85 5 Image Chart
2005 10 17 00 26.5 134.6 945 85 5 Image Chart
2005 10 17 06 27.6 134.9 950 80 5 Image Chart
2005 10 17 12 28.5 135.5 955 75 5 Image Chart
2005 10 17 18 29.2 136.1 955 75 5 Image Chart
2005 10 18 00 30.0 136.7 955 75 5 Image Chart
2005 10 18 06 31.0 137.9 955 75 5 Image Chart
2005 10 18 09 31.4 138.3 960 65 5 Image Chart
2005 10 18 12 31.5 139.0 980 50 4 Image Chart
2005 10 18 15 31.5 139.5 990 45 3 Image Chart
2005 10 18 18 31.4 140.0 998 40 3 Image Chart
2005 10 18 21 31.2 140.4 1002 35 3 Image Chart
2005 10 19 00 31.2 140.8 1004 35 3 Image Chart
2005 10 19 03 31.1 141.2 1006 35 3 Image Chart
2005 10 19 06 31.2 141.6 1008 0 2 Image Chart
2005 10 19 12 31.7 143.2 1012 0 2 Image Chart
Japan Meteorological Agency Best Track Data | Correction Date : 2005-12-19
< Typhoon 200519 2005 Season Typhoon 200521 >

Help